createdAt,value
2023-07-07T00:03:32.211Z,3.58
2023-07-07T00:05:58.946Z,3.88
2023-07-07T00:08:25.829Z,3.20
2023-07-07T00:10:53.612Z,3.13
2023-07-07T00:13:21.583Z,3.53
2023-07-07T00:15:48.433Z,3.08
2023-07-07T00:18:27.559Z,2.95
2023-07-07T00:21:00.510Z,3.30
2023-07-07T00:23:30.874Z,3.40
2023-07-07T00:26:09.647Z,3.13
2023-07-07T00:28:37.089Z,3.08
2023-07-07T00:31:06.309Z,3.28
2023-07-07T00:33:33.258Z,3.30
2023-07-07T00:36:00.610Z,3.78
2023-07-07T00:38:27.690Z,3.25
2023-07-07T00:40:54.723Z,3.90
2023-07-07T00:43:23.444Z,3.30
2023-07-07T00:45:50.852Z,3.20
2023-07-07T00:48:22.306Z,3.38
2023-07-07T00:50:56.175Z,3.22
2023-07-07T00:53:25.119Z,3.03
2023-07-07T00:55:57.627Z,3.75
2023-07-07T00:58:27.135Z,3.53
2023-07-07T01:01:02.170Z,3.50
2023-07-07T01:03:38.719Z,3.58
2023-07-07T01:06:09.317Z,3.60
2023-07-07T01:08:37.768Z,3.10
2023-07-07T01:11:05.422Z,2.92
2023-07-07T01:13:32.740Z,3.60
2023-07-07T01:16:32.133Z,3.35
2023-07-07T01:19:18.065Z,2.90
2023-07-07T01:21:54.765Z,3.55
2023-07-07T01:24:33.429Z,3.15
2023-07-07T01:27:21.611Z,3.13
2023-07-07T01:30:19.486Z,3.38
2023-07-07T01:32:47.155Z,3.00
2023-07-07T01:35:33.057Z,3.08
2023-07-07T01:38:40.906Z,2.70
2023-07-07T01:41:15.794Z,3.20
2023-07-07T01:44:03.336Z,3.40
2023-07-07T01:46:58.424Z,3.10
2023-07-07T01:49:54.680Z,3.95
2023-07-07T01:52:21.426Z,3.78
2023-07-07T01:54:56.253Z,3.20
2023-07-07T01:57:25.841Z,3.40
2023-07-07T02:00:08.888Z,3.15
2023-07-07T02:02:44.310Z,3.40
2023-07-07T02:05:12.735Z,3.42
2023-07-07T02:07:40.946Z,3.00
2023-07-07T02:10:08.187Z,3.30
2023-07-07T02:12:36.218Z,3.65
2023-07-07T02:15:04.097Z,3.25
2023-07-07T02:17:31.816Z,2.92
2023-07-07T02:19:58.657Z,3.20
2023-07-07T02:22:26.145Z,4.10
2023-07-07T02:24:52.988Z,3.40
2023-07-07T02:27:20.553Z,3.67
2023-07-07T02:29:47.493Z,3.85
2023-07-07T02:32:16.150Z,3.47
2023-07-07T02:34:49.083Z,3.15
2023-07-07T02:37:19.909Z,3.45
2023-07-07T02:39:47.277Z,3.42
2023-07-07T02:42:14.857Z,3.42
2023-07-07T02:44:42.300Z,3.85
2023-07-07T02:47:10.172Z,3.40
2023-07-07T02:49:37.602Z,3.65
2023-07-07T02:52:06.081Z,3.30
2023-07-07T02:54:33.342Z,3.45
2023-07-07T02:57:00.388Z,3.40
2023-07-07T02:59:27.457Z,3.58
2023-07-07T03:01:54.229Z,3.63
2023-07-07T03:04:21.634Z,3.25
2023-07-07T03:06:49.028Z,3.90
2023-07-07T03:09:16.000Z,4.10
2023-07-07T03:11:46.082Z,3.70
2023-07-07T03:14:16.951Z,3.80
2023-07-07T03:16:48.379Z,3.90
2023-07-07T03:19:21.173Z,3.65
2023-07-07T03:22:06.197Z,3.40
2023-07-07T03:24:54.864Z,3.50
2023-07-07T03:27:31.094Z,4.10
2023-07-07T03:29:58.544Z,3.58
2023-07-07T03:32:26.219Z,3.78
2023-07-07T03:35:00.190Z,4.00
2023-07-07T03:37:29.131Z,3.38
2023-07-07T03:39:56.544Z,3.83
2023-07-07T03:42:23.359Z,4.60
2023-07-07T03:44:50.696Z,3.80
2023-07-07T03:47:19.109Z,4.00
2023-07-07T03:49:46.066Z,4.30
2023-07-07T03:52:14.117Z,4.05
2023-07-07T03:54:42.043Z,3.90
2023-07-07T03:57:12.056Z,3.80
2023-07-07T03:59:39.161Z,4.13
2023-07-07T04:02:07.183Z,4.00
2023-07-07T04:04:34.138Z,3.92
2023-07-07T04:07:04.078Z,3.70
2023-07-07T04:09:31.741Z,4.35
2023-07-07T04:11:58.527Z,4.13
2023-07-07T04:14:29.801Z,4.40
2023-07-07T04:16:56.649Z,4.20
2023-07-07T04:19:23.571Z,4.10
2023-07-07T04:21:50.934Z,4.00
2023-07-07T04:24:21.429Z,4.32
2023-07-07T04:26:48.464Z,3.80
2023-07-07T04:29:15.424Z,3.97
2023-07-07T04:31:46.886Z,3.67
2023-07-07T04:34:16.039Z,3.55
2023-07-07T04:36:45.725Z,4.60
2023-07-07T04:39:13.337Z,4.18
2023-07-07T04:41:40.137Z,4.00
2023-07-07T04:44:07.029Z,4.40
2023-07-07T04:46:36.814Z,4.03
2023-07-07T04:49:09.069Z,4.88
2023-07-07T04:51:41.499Z,4.25
2023-07-07T04:54:16.006Z,4.97
2023-07-07T04:56:45.760Z,4.30
2023-07-07T04:59:12.547Z,4.38
2023-07-07T05:01:40.230Z,4.47
2023-07-07T05:04:08.643Z,5.05
2023-07-07T05:06:38.914Z,4.22
2023-07-07T05:09:11.159Z,4.32
2023-07-07T05:11:38.308Z,4.68
2023-07-07T05:14:05.373Z,4.03
2023-07-07T05:16:38.637Z,4.32
2023-07-07T05:19:07.036Z,4.70
2023-07-07T05:21:33.974Z,4.57
2023-07-07T05:24:01.052Z,4.38
2023-07-07T05:26:28.851Z,4.35
2023-07-07T05:29:02.005Z,4.38
2023-07-07T05:31:29.178Z,4.30
2023-07-07T05:33:56.045Z,4.57
2023-07-07T05:36:23.104Z,4.30
2023-07-07T05:38:51.403Z,4.25
2023-07-07T05:41:18.263Z,5.05
2023-07-07T05:43:45.240Z,4.50
2023-07-07T05:46:14.793Z,4.63
2023-07-07T05:48:42.983Z,4.43
2023-07-07T05:51:13.941Z,5.07
2023-07-07T05:53:42.189Z,4.55
2023-07-07T05:56:13.687Z,4.18
2023-07-07T05:58:43.224Z,4.80
2023-07-07T06:01:11.563Z,4.55
2023-07-07T06:03:40.462Z,4.47
2023-07-07T06:06:08.592Z,4.00
2023-07-07T06:08:35.698Z,4.18
2023-07-07T06:11:03.028Z,4.40
2023-07-07T06:13:30.097Z,5.00
2023-07-07T06:15:57.454Z,4.55
2023-07-07T06:18:24.624Z,4.60
2023-07-07T06:20:54.010Z,4.45
2023-07-07T06:23:21.637Z,4.43
2023-07-07T06:25:49.236Z,4.05
2023-07-07T06:28:17.419Z,3.88
2023-07-07T06:30:44.856Z,4.43
2023-07-07T06:33:11.752Z,4.07
2023-07-07T06:35:38.576Z,3.88
2023-07-07T06:38:06.467Z,4.00
2023-07-07T06:40:33.378Z,4.32
2023-07-07T06:43:00.229Z,4.15
2023-07-07T06:45:27.225Z,4.00
2023-07-07T06:47:55.006Z,3.75
2023-07-07T06:50:33.395Z,3.75
2023-07-07T06:53:00.372Z,3.78
2023-07-07T06:55:27.487Z,4.00
2023-07-07T06:57:54.356Z,3.78
2023-07-07T07:00:22.478Z,3.90
2023-07-07T07:02:49.922Z,3.30
2023-07-07T07:05:17.105Z,3.42
2023-07-07T07:07:43.906Z,3.50
2023-07-07T07:10:11.980Z,3.60
2023-07-07T07:12:38.836Z,3.60
2023-07-07T07:15:06.472Z,3.67
2023-07-07T07:17:36.081Z,3.17
2023-07-07T07:20:05.713Z,3.30
2023-07-07T07:22:32.534Z,3.70
2023-07-07T07:24:59.447Z,3.25
2023-07-07T07:27:26.737Z,3.15
2023-07-07T07:29:53.661Z,3.05
2023-07-07T07:32:20.412Z,3.10
2023-07-07T07:34:47.415Z,3.05
2023-07-07T07:37:15.816Z,3.50
2023-07-07T07:39:43.205Z,2.80
2023-07-07T07:42:10.920Z,3.35
2023-07-07T07:44:37.918Z,3.08
2023-07-07T07:47:05.076Z,2.92
2023-07-07T07:49:31.932Z,2.88
2023-07-07T07:51:58.726Z,2.67
2023-07-07T07:54:26.550Z,3.20
2023-07-07T07:56:53.577Z,3.30
2023-07-07T07:59:21.064Z,3.15
2023-07-07T08:01:48.119Z,3.28
2023-07-07T08:04:15.075Z,2.92
2023-07-07T08:06:43.814Z,2.83
2023-07-07T08:09:12.447Z,3.20
2023-07-07T08:11:42.872Z,3.10
2023-07-07T08:14:19.772Z,3.15
2023-07-07T08:16:47.936Z,2.70
2023-07-07T08:19:18.155Z,3.58
2023-07-07T08:21:47.197Z,3.38
2023-07-07T08:24:14.313Z,3.15
2023-07-07T08:26:41.924Z,2.97
2023-07-07T08:29:24.694Z,3.13
2023-07-07T08:31:52.625Z,3.22
2023-07-07T08:34:19.916Z,2.90
2023-07-07T08:36:48.887Z,2.83
2023-07-07T08:39:23.551Z,3.30
2023-07-07T08:41:53.911Z,2.95
2023-07-07T08:44:23.994Z,3.25
2023-07-07T08:46:54.488Z,2.90
2023-07-07T08:49:33.039Z,2.67
2023-07-07T08:52:16.471Z,3.13
2023-07-07T08:55:07.807Z,3.13
2023-07-07T08:57:45.535Z,3.13
2023-07-07T09:00:22.056Z,2.55
2023-07-07T09:03:15.023Z,2.97
2023-07-07T09:05:57.665Z,2.95
2023-07-07T09:08:41.603Z,2.60
2023-07-07T09:11:15.870Z,2.75
2023-07-07T09:13:46.029Z,2.72
2023-07-07T09:16:27.630Z,2.70
2023-07-07T09:19:21.376Z,2.95
2023-07-07T09:22:05.181Z,2.30
2023-07-07T09:24:59.184Z,2.38
2023-07-07T09:27:36.006Z,2.35
2023-07-07T09:30:20.706Z,2.53
2023-07-07T09:32:50.026Z,2.10
2023-07-07T09:35:20.292Z,2.40
2023-07-07T09:38:21.044Z,2.45
2023-07-07T09:41:25.664Z,2.83
2023-07-07T09:44:15.980Z,2.35
2023-07-07T09:47:00.190Z,2.78
2023-07-07T09:49:52.739Z,2.90
2023-07-07T09:52:37.975Z,2.40
2023-07-07T09:55:23.314Z,2.60
2023-07-07T09:58:05.074Z,3.05
2023-07-07T10:00:45.266Z,2.60
2023-07-07T10:03:36.894Z,2.85
2023-07-07T10:06:08.261Z,2.80
2023-07-07T10:08:35.108Z,2.53
2023-07-07T10:16:31.949Z,2.47
2023-07-07T10:19:01.821Z,2.83
2023-07-07T10:21:29.113Z,3.00
2023-07-07T10:23:55.960Z,2.97
2023-07-07T10:26:23.958Z,2.75
2023-07-07T10:28:54.271Z,3.05
2023-07-07T10:31:21.139Z,2.53
2023-07-07T10:33:52.223Z,2.70
2023-07-07T10:36:19.372Z,2.88
2023-07-07T10:38:56.136Z,2.63
2023-07-07T10:41:28.500Z,2.70
2023-07-07T10:43:56.030Z,2.60
2023-07-07T10:46:23.092Z,2.53
2023-07-07T10:48:53.870Z,3.00
2023-07-07T10:51:20.830Z,2.50
2023-07-07T10:53:51.358Z,2.78
2023-07-07T10:56:31.713Z,2.72
2023-07-07T10:59:17.193Z,2.70
2023-07-07T11:02:25.752Z,2.72
2023-07-07T11:04:55.904Z,2.50
2023-07-07T11:07:26.062Z,2.58
2023-07-07T11:09:57.043Z,2.30
2023-07-07T11:12:51.814Z,2.22
2023-07-07T11:15:39.594Z,2.85
2023-07-07T11:18:13.077Z,2.55
2023-07-07T11:21:00.915Z,2.35
2023-07-07T11:23:36.700Z,2.60
2023-07-07T11:26:19.275Z,2.70
2023-07-07T11:29:09.500Z,2.42
2023-07-07T11:32:25.647Z,2.47
2023-07-07T11:35:11.963Z,2.30
2023-07-07T11:37:58.833Z,2.70
2023-07-07T11:40:33.563Z,2.17
2023-07-07T11:43:03.484Z,2.20
2023-07-07T11:45:35.153Z,2.90
2023-07-07T11:48:21.158Z,2.20
2023-07-07T11:51:20.781Z,2.47
2023-07-07T11:54:15.311Z,2.55
2023-07-07T11:57:27.216Z,2.58
2023-07-07T12:00:12.309Z,2.67
2023-07-07T12:02:55.161Z,2.50
2023-07-07T12:05:30.974Z,2.53
2023-07-07T12:08:16.612Z,2.45
2023-07-07T12:10:53.230Z,2.20
2023-07-07T12:13:26.764Z,2.35
2023-07-07T12:16:06.845Z,2.60
2023-07-07T12:18:37.640Z,2.72
2023-07-07T12:21:11.438Z,2.72
2023-07-07T12:23:42.102Z,2.75
2023-07-07T12:26:27.847Z,2.30
2023-07-07T12:29:00.434Z,2.55
2023-07-07T12:31:29.448Z,2.72
2023-07-07T12:33:56.959Z,2.58
2023-07-07T12:36:29.856Z,2.30
2023-07-07T12:39:01.048Z,2.80
2023-07-07T12:41:30.252Z,2.95
2023-07-07T12:44:03.915Z,2.03
2023-07-07T12:46:34.055Z,2.50
2023-07-07T12:49:08.076Z,2.35
2023-07-07T12:51:38.672Z,2.58
2023-07-07T12:54:05.862Z,2.47
2023-07-07T12:56:32.967Z,2.47
2023-07-07T12:59:02.759Z,2.30
2023-07-07T13:01:35.317Z,2.50
2023-07-07T13:04:12.436Z,2.33
2023-07-07T13:06:41.497Z,2.42
2023-07-07T13:09:12.579Z,2.35
2023-07-07T13:11:44.898Z,2.20
2023-07-07T13:14:30.715Z,2.50
2023-07-07T13:17:03.780Z,2.40
2023-07-07T13:19:34.083Z,2.30
2023-07-07T13:22:11.082Z,2.42
2023-07-07T13:24:43.940Z,2.20
2023-07-07T13:27:22.759Z,2.40
2023-07-07T13:29:56.506Z,2.33
2023-07-07T13:32:27.401Z,2.42
2023-07-07T13:34:54.918Z,2.30
2023-07-07T13:37:22.055Z,2.25
2023-07-07T13:39:49.123Z,2.25
2023-07-07T13:42:30.740Z,2.50
2023-07-07T13:45:04.360Z,2.88
2023-07-07T13:47:34.251Z,2.13
2023-07-07T13:50:07.261Z,2.40
2023-07-07T13:52:36.355Z,2.15
2023-07-07T13:55:03.612Z,2.30
2023-07-07T13:57:33.822Z,2.53
2023-07-07T14:00:09.050Z,2.22
2023-07-07T14:02:45.926Z,2.40
2023-07-07T14:05:18.793Z,2.28
2023-07-07T14:07:47.606Z,2.50
2023-07-07T14:10:28.940Z,2.40
2023-07-07T14:12:57.409Z,2.63
2023-07-07T14:15:45.015Z,2.30
2023-07-07T14:18:13.433Z,2.30
2023-07-07T14:20:50.430Z,2.15
2023-07-07T14:23:19.084Z,2.03
2023-07-07T14:25:48.180Z,2.17
2023-07-07T14:28:21.551Z,2.50
2023-07-07T14:30:51.168Z,2.72
2023-07-07T14:33:25.825Z,2.13
2023-07-07T14:36:01.109Z,2.33
2023-07-07T14:38:36.729Z,2.03
2023-07-07T14:41:12.375Z,2.50
2023-07-07T14:43:44.650Z,2.50
2023-07-07T14:46:24.557Z,2.30
2023-07-07T14:48:54.430Z,2.45
2023-07-07T14:51:34.574Z,2.55
2023-07-07T14:54:05.083Z,2.20
2023-07-07T14:56:38.040Z,2.38
2023-07-07T14:59:19.650Z,2.60
2023-07-07T15:01:56.865Z,2.22
2023-07-07T15:04:29.922Z,2.38
2023-07-07T15:06:56.868Z,2.30
2023-07-07T15:09:24.708Z,2.50
2023-07-07T15:11:52.800Z,2.45
2023-07-07T15:14:19.596Z,2.10
2023-07-07T15:16:48.515Z,2.30
2023-07-07T15:19:18.104Z,2.50
2023-07-07T15:21:45.902Z,2.45
2023-07-07T15:24:13.045Z,2.38
2023-07-07T15:26:41.844Z,2.50
2023-07-07T15:29:18.727Z,2.60
2023-07-07T15:31:50.190Z,2.45
2023-07-07T15:34:17.535Z,2.47
2023-07-07T15:36:44.468Z,2.60
2023-07-07T15:39:13.814Z,2.53
2023-07-07T15:41:41.407Z,2.30
2023-07-07T15:44:08.335Z,2.40
2023-07-07T15:46:44.386Z,2.60
2023-07-07T15:49:17.577Z,2.47
2023-07-07T15:51:46.788Z,2.67
2023-07-07T15:54:14.010Z,2.30
2023-07-07T15:56:44.217Z,2.83
2023-07-07T15:59:25.146Z,2.38
2023-07-07T16:01:54.340Z,2.38
2023-07-07T16:04:22.965Z,2.50
2023-07-07T16:06:54.121Z,2.28
2023-07-07T16:09:24.082Z,2.50
2023-07-07T16:11:51.367Z,2.70
2023-07-07T16:14:18.112Z,2.30
2023-07-07T16:16:47.758Z,2.78
2023-07-07T16:19:17.352Z,2.40
2023-07-07T16:21:44.740Z,2.38
2023-07-07T16:24:11.846Z,2.80
2023-07-07T16:26:40.558Z,2.28
2023-07-07T16:29:13.962Z,2.17
2023-07-07T16:31:41.326Z,2.60
2023-07-07T16:34:08.271Z,2.60
2023-07-07T16:36:35.521Z,2.60
2023-07-07T16:39:02.663Z,2.50
2023-07-07T16:41:30.189Z,2.55
2023-07-07T16:43:59.714Z,2.58
2023-07-07T16:46:27.425Z,2.22
2023-07-07T16:48:54.898Z,2.60
2023-07-07T16:51:24.732Z,2.47
2023-07-07T16:53:52.143Z,2.90
2023-07-07T16:56:26.854Z,2.40
2023-07-07T16:58:54.874Z,2.40
2023-07-07T17:01:22.760Z,2.50
2023-07-07T17:03:49.908Z,2.40
2023-07-07T17:06:26.288Z,2.20
2023-07-07T17:08:58.050Z,2.65
2023-07-07T17:11:27.727Z,2.67
2023-07-07T17:13:55.241Z,2.63
2023-07-07T17:16:23.785Z,2.42
2023-07-07T17:18:54.464Z,2.60
2023-07-07T17:21:23.771Z,2.30
2023-07-07T17:23:51.644Z,2.33
2023-07-07T17:26:27.142Z,2.00
2023-07-07T17:28:55.525Z,2.45
2023-07-07T17:31:26.932Z,2.47
2023-07-07T17:33:56.364Z,2.60
2023-07-07T17:36:27.809Z,2.35
2023-07-07T17:38:57.225Z,2.45
2023-07-07T17:41:30.251Z,2.58
2023-07-07T17:43:57.357Z,2.70
2023-07-07T17:46:33.856Z,2.45
2023-07-07T17:49:06.394Z,2.40
2023-07-07T17:51:35.756Z,2.45
2023-07-07T17:54:02.762Z,2.72
2023-07-07T17:56:33.373Z,2.72
2023-07-07T17:59:01.506Z,2.50
2023-07-07T18:01:29.205Z,2.60
2023-07-07T18:03:56.593Z,2.25
2023-07-07T18:06:28.575Z,2.90
2023-07-07T18:08:56.733Z,2.47
2023-07-07T18:11:26.598Z,2.40
2023-07-07T18:13:54.236Z,2.90
2023-07-07T18:16:29.589Z,2.40
2023-07-07T18:19:16.151Z,2.70
2023-07-07T18:21:52.361Z,2.45
2023-07-07T18:24:23.438Z,2.80
2023-07-07T18:26:50.492Z,2.70
2023-07-07T18:29:23.666Z,2.10
2023-07-07T18:31:51.037Z,2.20
2023-07-07T18:34:18.099Z,3.00
2023-07-07T18:36:49.050Z,2.60
2023-07-07T18:39:22.730Z,2.75
2023-07-07T18:41:52.714Z,2.63
2023-07-07T18:44:21.443Z,2.28
2023-07-07T18:46:48.977Z,2.33
2023-07-07T18:49:17.815Z,2.75
2023-07-07T18:51:47.572Z,2.72
2023-07-07T18:54:16.467Z,2.10
2023-07-07T18:56:47.655Z,2.30
2023-07-07T18:59:22.640Z,2.60
2023-07-07T19:01:50.370Z,2.53
2023-07-07T19:04:17.493Z,2.58
2023-07-07T19:06:46.135Z,2.60
2023-07-07T19:09:23.020Z,3.10
2023-07-07T19:11:54.143Z,2.25
2023-07-07T19:14:21.698Z,2.38
2023-07-07T19:16:52.151Z,2.67
2023-07-07T19:19:27.563Z,2.65
2023-07-07T19:21:54.907Z,2.60
2023-07-07T19:24:22.526Z,2.38
2023-07-07T19:26:53.770Z,2.95
2023-07-07T19:29:20.703Z,2.97
2023-07-07T19:31:48.079Z,3.30
2023-07-07T19:34:14.953Z,2.60
2023-07-07T19:36:43.609Z,3.08
2023-07-07T19:39:22.154Z,3.05
2023-07-07T19:41:50.969Z,2.85
2023-07-07T19:44:20.300Z,2.60
2023-07-07T19:46:47.546Z,2.80
2023-07-07T19:49:19.039Z,2.63
2023-07-07T19:51:46.982Z,3.00
2023-07-07T19:54:14.160Z,2.75
2023-07-07T19:56:41.071Z,2.22
2023-07-07T19:59:13.370Z,2.72
2023-07-07T20:01:40.442Z,2.45
2023-07-07T20:04:07.390Z,2.90
2023-07-07T20:06:41.871Z,2.58
2023-07-07T20:09:21.287Z,2.67
2023-07-07T20:11:49.412Z,2.58
2023-07-07T20:14:16.858Z,2.45
2023-07-07T20:16:51.099Z,2.67
2023-07-07T20:19:21.958Z,2.58
2023-07-07T20:21:50.265Z,2.30
2023-07-07T20:24:27.285Z,2.47
2023-07-07T20:26:59.293Z,2.80
2023-07-07T20:29:31.010Z,2.58
2023-07-07T20:31:57.987Z,2.50
2023-07-07T20:34:25.536Z,2.17
2023-07-07T20:36:52.357Z,2.10
2023-07-07T20:39:21.605Z,2.55
2023-07-07T20:41:49.874Z,2.45
2023-07-07T20:44:17.643Z,2.47
2023-07-07T20:46:46.685Z,1.98
2023-07-07T20:49:19.531Z,2.10
2023-07-07T20:51:47.806Z,2.35
2023-07-07T20:54:15.169Z,2.72
2023-07-07T20:56:42.382Z,2.53
2023-07-07T20:59:25.883Z,2.40
2023-07-07T21:01:56.096Z,2.30
2023-07-07T21:04:23.390Z,2.33
2023-07-07T21:06:52.650Z,2.20
2023-07-07T21:09:19.784Z,2.45
2023-07-07T21:11:46.853Z,2.58
2023-07-07T21:14:14.074Z,2.60
2023-07-07T21:16:45.793Z,2.70
2023-07-07T21:21:40.969Z,2.72
2023-07-07T21:24:08.534Z,2.85
2023-07-07T21:26:36.491Z,2.80
2023-07-07T21:29:04.012Z,2.58
2023-07-07T21:31:31.676Z,2.58
2023-07-07T21:34:00.718Z,2.58
2023-07-07T21:36:34.163Z,2.30
2023-07-07T21:39:27.546Z,2.55
2023-07-07T21:42:10.805Z,2.70
2023-07-07T21:44:41.358Z,2.67
2023-07-07T21:47:17.378Z,2.67
2023-07-07T21:49:45.981Z,2.35
2023-07-07T21:52:16.039Z,2.40
2023-07-07T21:54:43.417Z,2.38
2023-07-07T21:57:37.587Z,2.28
2023-07-07T22:00:13.031Z,2.30
2023-07-07T22:02:41.852Z,2.60
2023-07-07T22:05:11.313Z,2.40
2023-07-07T22:07:38.489Z,2.25
2023-07-07T22:10:28.977Z,2.33
2023-07-07T22:12:57.103Z,2.50
2023-07-07T22:15:24.156Z,2.58
2023-07-07T22:17:51.586Z,2.45
2023-07-07T22:20:39.325Z,2.42
2023-07-07T22:23:09.687Z,2.35
2023-07-07T22:25:36.823Z,2.45
2023-07-07T22:28:10.736Z,2.42
2023-07-07T22:30:41.633Z,2.08
2023-07-07T22:33:13.423Z,2.40
2023-07-07T22:35:40.580Z,2.50
2023-07-07T22:38:28.427Z,2.85
2023-07-07T22:40:58.372Z,2.45
2023-07-07T22:43:27.909Z,2.45
2023-07-07T22:46:01.400Z,2.13
2023-07-07T22:48:29.471Z,2.53
2023-07-07T22:50:57.612Z,2.47
2023-07-07T22:53:25.017Z,2.42
2023-07-07T22:55:53.179Z,2.40
2023-07-07T22:58:22.236Z,1.92
2023-07-07T23:00:49.982Z,2.28
2023-07-07T23:03:17.401Z,1.98
2023-07-07T23:05:46.715Z,2.30
2023-07-07T23:08:26.300Z,2.10
2023-07-07T23:10:53.955Z,2.40
2023-07-07T23:13:21.130Z,2.20
2023-07-07T23:15:48.716Z,2.38
2023-07-07T23:18:17.129Z,2.13
2023-07-07T23:20:44.314Z,2.30
2023-07-07T23:23:21.776Z,2.20
2023-07-07T23:25:58.029Z,2.35
2023-07-07T23:28:27.859Z,2.55
2023-07-07T23:31:05.866Z,2.38
2023-07-07T23:33:36.873Z,2.30
2023-07-07T23:36:19.574Z,2.40
2023-07-07T23:38:47.187Z,2.50
2023-07-07T23:41:14.550Z,2.17
2023-07-07T23:43:42.259Z,2.17
2023-07-07T23:46:11.784Z,2.95
2023-07-07T23:48:38.757Z,2.25
2023-07-07T23:51:05.803Z,2.13
2023-07-07T23:53:32.694Z,2.58
2023-07-07T23:55:59.636Z,2.63
2023-07-07T23:58:28.800Z,2.58
